Time,TemperatureF,DewpointF,PressureIn,WindDirection,WindDirectionDegrees,WindSpeedMPH,WindSpeedGustMPH,Humidity,HourlyPrecipIn,Conditions,Clouds,dailyrainin,SoftwareType,DateUTC
2013-05-10 00:01:00,67.1,65.0,29.90,NW,326,2.0,3.0,93,0.00,,,0.00,VWS V14.01,2013-05-10 05:01:00,
2013-05-10 00:06:00,67.1,65.0,29.90,NW,326,0.0,1.0,93,0.00,,,0.00,VWS V14.01,2013-05-10 05:06:00,
2013-05-10 00:11:00,67.2,65.1,29.90,NW,326,0.0,0.0,93,0.00,,,0.00,VWS V14.01,2013-05-10 05:11:00,
2013-05-10 00:16:00,67.2,65.1,29.90,NW,326,0.0,0.0,93,0.00,,,0.00,VWS V14.01,2013-05-10 05:16:00,
2013-05-10 00:21:00,67.2,65.1,29.89,NW,326,0.0,0.0,93,0.00,,,0.00,VWS V14.01,2013-05-10 05:21:00,
2013-05-10 00:26:00,67.2,65.1,29.89,NW,326,0.0,0.0,93,0.00,,,0.00,VWS V14.01,2013-05-10 05:26:00,
2013-05-10 00:31:00,67.2,65.4,29.90,NW,326,0.0,0.0,94,0.00,,,0.00,VWS V14.01,2013-05-10 05:31:00,
2013-05-10 00:36:00,67.2,65.4,29.89,NW,326,0.0,0.0,94,0.00,,,0.00,VWS V14.01,2013-05-10 05:36:00,
2013-05-10 00:41:00,67.2,65.4,29.89,NW,326,0.0,0.0,94,0.00,,,0.00,VWS V14.01,2013-05-10 05:41:00,
2013-05-10 00:46:00,67.3,65.5,29.89,NW,326,0.0,0.0,94,0.00,,,0.00,VWS V14.01,2013-05-10 05:46:00,
2013-05-10 00:51:00,67.3,65.5,29.89,NW,326,0.0,0.0,94,0.00,,,0.00,VWS V14.01,2013-05-10 05:51:00,
2013-05-10 00:56:00,67.3,65.5,29.89,NW,326,0.0,0.0,94,0.00,,,0.00,VWS V14.01,2013-05-10 05:56:00,
2013-05-10 01:01:00,67.3,65.5,29.89,NW,326,0.0,0.0,94,0.00,,,0.00,VWS V14.01,2013-05-10 06:01:00,
2013-05-10 01:06:00,67.3,65.5,29.89,NW,326,0.0,0.0,94,0.00,,,0.00,VWS V14.01,2013-05-10 06:06:00,
2013-05-10 01:11:00,67.3,65.5,29.88,NW,326,0.0,0.0,94,0.00,,,0.00,VWS V14.01,2013-05-10 06:11:00,
2013-05-10 01:16:00,67.3,65.5,29.88,NW,326,0.0,0.0,94,0.00,,,0.00,VWS V14.01,2013-05-10 06:16:00,
2013-05-10 01:21:00,67.3,65.5,29.87,NW,326,0.0,0.0,94,0.00,,,0.00,VWS V14.01,2013-05-10 06:21:00,
2013-05-10 01:26:00,67.3,65.5,29.87,NW,326,0.0,0.0,94,0.00,,,0.00,VWS V14.01,2013-05-10 06:26:00,
2013-05-10 01:31:00,67.2,65.4,29.86,NW,326,0.0,0.0,94,0.00,,,0.00,VWS V14.01,2013-05-10 06:31:00,
2013-05-10 01:36:00,67.3,65.5,29.86,NW,326,0.0,2.0,94,0.00,,,0.00,VWS V14.01,2013-05-10 06:36:00,
2013-05-10 01:41:00,67.3,65.5,29.86,NW,326,0.0,0.0,94,0.00,,,0.00,VWS V14.01,2013-05-10 06:41:00,
2013-05-10 01:46:00,67.3,65.5,29.86,NW,326,0.0,0.0,94,0.00,,,0.00,VWS V14.01,2013-05-10 06:46:00,
2013-05-10 01:51:00,67.3,65.5,29.86,NW,326,3.0,4.0,94,0.00,,,0.00,VWS V14.01,2013-05-10 06:51:00,
2013-05-10 01:56:00,67.3,65.5,29.86,NW,326,0.0,2.0,94,0.00,,,0.00,VWS V14.01,2013-05-10 06:56:00,
2013-05-10 02:01:00,67.2,65.4,29.86,NW,326,1.0,2.0,94,0.00,,,0.00,VWS V14.01,2013-05-10 07:01:00,
2013-05-10 02:06:00,67.1,65.3,29.87,NW,326,0.0,1.0,94,0.00,,,0.00,VWS V14.01,2013-05-10 07:06:00,
2013-05-10 02:11:00,67.1,65.3,29.87,NW,326,0.0,0.0,94,0.00,,,0.00,VWS V14.01,2013-05-10 07:11:00,
2013-05-10 02:16:00,67.1,65.3,29.87,NW,326,0.0,0.0,94,0.00,,,0.00,VWS V14.01,2013-05-10 07:16:00,
2013-05-10 02:21:00,67.0,65.2,29.86,NW,326,0.0,0.0,94,0.00,,,0.00,VWS V14.01,2013-05-10 07:21:00,
2013-05-10 02:26:00,67.0,65.2,29.86,NW,326,0.0,0.0,94,0.00,,,0.00,VWS V14.01,2013-05-10 07:26:00,
2013-05-10 02:31:00,67.0,65.5,29.86,NW,326,0.0,2.0,95,0.00,,,0.00,VWS V14.01,2013-05-10 07:31:00,
2013-05-10 02:36:00,67.0,65.5,29.85,NW,326,1.0,2.0,95,0.00,,,0.00,VWS V14.01,2013-05-10 07:36:00,
2013-05-10 02:41:00,66.9,65.4,29.85,North,360,2.0,4.0,95,0.00,,,0.00,VWS V14.01,2013-05-10 07:41:00,
2013-05-10 02:46:00,66.8,65.0,29.84,North,360,1.0,1.0,94,0.00,,,0.00,VWS V14.01,2013-05-10 07:46:00,
2013-05-10 02:51:00,66.7,64.9,29.84,ENE,75,0.0,2.0,94,0.00,,,0.00,VWS V14.01,2013-05-10 07:51:00,
2013-05-10 02:56:00,66.6,64.8,29.84,East,82,1.0,2.0,94,0.00,,,0.00,VWS V14.01,2013-05-10 07:56:00,
2013-05-10 03:01:00,66.5,64.7,29.85,East,82,1.0,1.0,94,0.00,,,0.00,VWS V14.01,2013-05-10 08:01:00,
2013-05-10 03:06:00,66.3,64.5,29.85,East,82,0.0,1.0,94,0.00,,,0.00,VWS V14.01,2013-05-10 08:06:00,
2013-05-10 03:11:00,66.3,64.5,29.86,North,355,0.0,0.0,94,0.00,,,0.00,VWS V14.01,2013-05-10 08:11:00,
2013-05-10 03:16:00,66.2,64.7,29.86,North,355,0.0,0.0,95,0.00,,,0.00,VWS V14.01,2013-05-10 08:16:00,
2013-05-10 03:21:00,66.2,64.7,29.86,North,355,0.0,0.0,95,0.00,,,0.00,VWS V14.01,2013-05-10 08:21:00,
2013-05-10 03:26:00,66.2,64.7,29.86,North,355,0.0,0.0,95,0.00,,,0.00,VWS V14.01,2013-05-10 08:26:00,
2013-05-10 03:31:00,66.2,64.7,29.86,North,355,0.0,0.0,95,0.00,,,0.00,VWS V14.01,2013-05-10 08:31:00,
2013-05-10 03:36:00,66.2,64.7,29.85,North,355,0.0,0.0,95,0.00,,,0.00,VWS V14.01,2013-05-10 08:36:00,
2013-05-10 03:40:00,66.2,64.7,29.85,North,355,0.0,0.0,95,0.00,,,0.00,VWS V14.01,2013-05-10 08:40:00,
2013-05-10 03:45:00,66.2,64.7,29.85,North,355,0.0,0.0,95,0.00,,,0.00,VWS V14.01,2013-05-10 08:45:00,
2013-05-10 03:50:00,66.2,64.7,29.85,North,355,1.0,1.0,95,0.00,,,0.00,VWS V14.01,2013-05-10 08:50:00,
2013-05-10 03:55:00,66.3,64.8,29.86,NW,325,2.0,4.0,95,0.00,,,0.00,VWS V14.01,2013-05-10 08:55:00,
2013-05-10 04:00:00,66.3,64.8,29.86,NW,309,1.0,3.0,95,0.00,,,0.00,VWS V14.01,2013-05-10 09:00:00,
2013-05-10 04:05:00,66.3,64.8,29.86,NNW,342,0.0,2.0,95,0.00,,,0.00,VWS V14.01,2013-05-10 09:05:00,
2013-05-10 04:10:00,66.3,64.8,29.87,NW,321,2.0,4.0,95,0.00,,,0.00,VWS V14.01,2013-05-10 09:10:00,
2013-05-10 04:15:00,66.2,64.7,29.86,NW,323,0.0,3.0,95,0.00,,,0.00,VWS V14.01,2013-05-10 09:15:00,
2013-05-10 04:20:00,66.2,64.7,29.87,NW,323,0.0,2.0,95,0.00,,,0.00,VWS V14.01,2013-05-10 09:20:00,
2013-05-10 04:25:00,66.1,64.6,29.87,NW,323,1.0,4.0,95,0.00,,,0.00,VWS V14.01,2013-05-10 09:25:00,
2013-05-10 04:30:00,66.0,64.5,29.88,WNW,295,3.0,4.0,95,0.00,,,0.00,VWS V14.01,2013-05-10 09:30:00,
2013-05-10 04:35:00,65.9,64.4,29.87,NNW,345,0.0,2.0,95,0.00,,,0.00,VWS V14.01,2013-05-10 09:35:00,
2013-05-10 04:40:00,65.9,64.4,29.87,NW,323,0.0,2.0,95,0.00,,,0.00,VWS V14.01,2013-05-10 09:40:00,
2013-05-10 04:45:00,65.9,64.4,29.87,WNW,298,3.0,3.0,95,0.00,,,0.00,VWS V14.01,2013-05-10 09:45:00,
2013-05-10 04:50:00,65.9,64.4,29.87,NNW,343,4.0,4.0,95,0.00,,,0.00,VWS V14.01,2013-05-10 09:50:00,
2013-05-10 04:55:00,65.8,64.3,29.87,NNW,344,3.0,3.0,95,0.00,,,0.00,VWS V14.01,2013-05-10 09:55:00,
2013-05-10 05:00:00,65.7,64.2,29.87,NNW,333,4.0,6.0,95,0.00,,,0.00,VWS V14.01,2013-05-10 10:00:00,
2013-05-10 05:05:00,65.6,64.1,29.88,NW,323,5.0,9.0,95,0.00,,,0.00,VWS V14.01,2013-05-10 10:05:00,
2013-05-10 05:10:00,65.6,64.4,29.89,WSW,243,4.0,6.0,96,0.00,,,0.00,VWS V14.01,2013-05-10 10:10:00,
2013-05-10 05:15:00,65.5,64.0,29.89,NW,309,3.0,6.0,95,0.00,,,0.00,VWS V14.01,2013-05-10 10:15:00,
2013-05-10 05:20:00,65.5,64.0,29.89,NNW,335,2.0,2.0,95,0.00,,,0.00,VWS V14.01,2013-05-10 10:20:00,
2013-05-10 05:25:00,65.5,64.0,29.89,NNW,335,0.0,3.0,95,0.00,,,0.00,VWS V14.01,2013-05-10 10:25:00,
2013-05-10 05:30:00,65.5,64.0,29.89,NW,318,2.0,3.0,95,0.00,,,0.00,VWS V14.01,2013-05-10 10:30:00,
2013-05-10 05:35:00,65.4,63.9,29.89,WNW,302,2.0,3.0,95,0.00,,,0.00,VWS V14.01,2013-05-10 10:35:00,
2013-05-10 05:40:00,65.4,63.9,29.89,NW,314,3.0,4.0,95,0.00,,,0.00,VWS V14.01,2013-05-10 10:40:00,
2013-05-10 05:45:00,65.4,63.9,29.89,North,349,0.0,3.0,95,0.00,,,0.00,VWS V14.01,2013-05-10 10:45:00,
2013-05-10 05:50:00,65.3,63.8,29.89,WNW,302,0.0,4.0,95,0.00,,,0.00,VWS V14.01,2013-05-10 10:50:00,
2013-05-10 05:55:00,65.2,63.7,29.89,NW,322,4.0,6.0,95,0.00,,,0.00,VWS V14.01,2013-05-10 10:55:00,
2013-05-10 06:00:00,65.1,63.9,29.89,NW,309,0.0,1.0,96,0.00,,,0.00,VWS V14.01,2013-05-10 11:00:00,
2013-05-10 06:05:00,64.9,63.7,29.90,NW,304,1.0,5.0,96,0.00,,,0.00,VWS V14.01,2013-05-10 11:05:00,
2013-05-10 06:10:00,64.9,63.4,29.89,NNW,335,1.0,3.0,95,0.00,,,0.00,VWS V14.01,2013-05-10 11:10:00,
2013-05-10 06:15:00,64.8,63.3,29.90,NW,318,2.0,3.0,95,0.00,,,0.00,VWS V14.01,2013-05-10 11:15:00,
2013-05-10 06:20:00,64.8,63.6,29.90,WNW,290,1.0,3.0,96,0.00,,,0.00,VWS V14.01,2013-05-10 11:20:00,
2013-05-10 06:25:00,64.7,63.5,29.90,NNW,333,0.0,2.0,96,0.00,,,0.00,VWS V14.01,2013-05-10 11:25:00,
2013-05-10 06:30:00,64.7,63.5,29.90,NNW,327,4.0,4.0,96,0.00,,,0.00,VWS V14.01,2013-05-10 11:30:00,
2013-05-10 06:35:00,64.7,63.5,29.91,NNW,338,0.0,2.0,96,0.00,,,0.00,VWS V14.01,2013-05-10 11:35:00,
2013-05-10 06:40:00,64.7,63.5,29.91,NW,325,1.0,5.0,96,0.00,,,0.00,VWS V14.01,2013-05-10 11:40:00,
2013-05-10 06:45:00,64.7,63.5,29.92,NW,312,2.0,3.0,96,0.00,,,0.00,VWS V14.01,2013-05-10 11:45:00,
2013-05-10 06:50:00,64.7,63.5,29.92,NW,325,1.0,2.0,96,0.00,,,0.00,VWS V14.01,2013-05-10 11:50:00,
2013-05-10 06:55:00,64.7,63.5,29.93,NW,325,2.0,3.0,96,0.00,,,0.00,VWS V14.01,2013-05-10 11:55:00,
2013-05-10 07:00:00,64.7,63.5,29.93,NW,325,1.0,3.0,96,0.00,,,0.00,VWS V14.01,2013-05-10 12:00:00,
2013-05-10 07:05:00,64.7,63.5,29.93,NW,325,0.0,2.0,96,0.00,,,0.00,VWS V14.01,2013-05-10 12:05:00,
2013-05-10 07:10:00,64.8,63.6,29.93,NW,325,0.0,3.0,96,0.00,,,0.00,VWS V14.01,2013-05-10 12:10:00,
2013-05-10 07:15:00,64.8,63.6,29.93,NNW,342,6.0,6.0,96,0.00,,,0.00,VWS V14.01,2013-05-10 12:15:00,
2013-05-10 07:20:00,64.8,63.6,29.94,North,9,2.0,2.0,96,0.00,,,0.00,VWS V14.01,2013-05-10 12:20:00,
2013-05-10 07:25:00,64.8,63.6,29.94,North,9,2.0,3.0,96,0.00,,,0.00,VWS V14.01,2013-05-10 12:25:00,
2013-05-10 07:30:00,64.8,63.6,29.95,NNW,332,1.0,3.0,96,0.00,,,0.00,VWS V14.01,2013-05-10 12:30:00,
2013-05-10 07:35:00,64.8,63.6,29.95,NNE,24,4.0,4.0,96,0.00,,,0.00,VWS V14.01,2013-05-10 12:35:00,
2013-05-10 07:40:00,64.8,63.6,29.95,NNE,12,2.0,6.0,96,0.00,,,0.00,VWS V14.01,2013-05-10 12:40:00,
2013-05-10 07:45:00,64.8,63.6,29.94,North,9,3.0,3.0,96,0.00,,,0.00,VWS V14.01,2013-05-10 12:45:00,
2013-05-10 07:50:00,64.7,63.5,29.95,NNE,14,1.0,3.0,96,0.00,,,0.00,VWS V14.01,2013-05-10 12:50:00,
2013-05-10 07:55:00,64.6,63.4,29.94,NNE,12,1.0,3.0,96,0.00,,,0.00,VWS V14.01,2013-05-10 12:55:00,
2013-05-10 08:00:00,64.5,63.3,29.94,NNW,346,3.0,4.0,96,0.00,,,0.00,VWS V14.01,2013-05-10 13:00:00,
2013-05-10 08:05:00,64.6,63.4,29.94,NNW,346,4.0,4.0,96,0.00,,,0.00,VWS V14.01,2013-05-10 13:05:00,
2013-05-10 08:10:00,64.5,63.3,29.94,NNE,12,1.0,3.0,96,0.00,,,0.00,VWS V14.01,2013-05-10 13:10:00,
2013-05-10 08:15:00,64.6,63.4,29.94,North,350,2.0,5.0,96,0.00,,,0.00,VWS V14.01,2013-05-10 13:15:00,
2013-05-10 08:20:00,64.7,63.5,29.95,North,11,5.0,7.0,96,0.00,,,0.00,VWS V14.01,2013-05-10 13:20:00,
2013-05-10 08:25:00,64.7,63.5,29.94,NNE,22,2.0,5.0,96,0.00,,,0.00,VWS V14.01,2013-05-10 13:25:00,
2013-05-10 08:30:00,64.8,63.6,29.94,NNE,19,0.0,4.0,96,0.00,,,0.00,VWS V14.01,2013-05-10 13:30:00,
2013-05-10 08:35:00,64.9,63.7,29.95,ENE,57,1.0,2.0,96,0.00,,,0.00,VWS V14.01,2013-05-10 13:35:00,
2013-05-10 08:40:00,65.0,63.8,29.95,East,85,0.0,0.0,96,0.00,,,0.00,VWS V14.01,2013-05-10 13:40:00,
2013-05-10 08:45:00,65.0,64.1,29.95,ENE,58,0.0,0.0,97,0.00,,,0.00,VWS V14.01,2013-05-10 13:45:00,
2013-05-10 08:50:00,65.1,63.9,29.96,NNE,17,3.0,4.0,96,0.00,,,0.00,VWS V14.01,2013-05-10 13:50:00,
2013-05-10 08:55:00,65.1,63.9,29.96,North,5,0.0,0.0,96,0.00,,,0.00,VWS V14.01,2013-05-10 13:55:00,
2013-05-10 09:00:00,65.1,63.9,29.97,North,5,0.0,0.0,96,0.00,,,0.00,VWS V14.01,2013-05-10 14:00:00,
2013-05-10 09:05:00,65.2,64.0,29.97,North,5,0.0,0.0,96,0.00,,,0.00,VWS V14.01,2013-05-10 14:05:00,
2013-05-10 09:10:00,65.1,63.9,29.97,North,5,1.0,2.0,96,0.00,,,0.00,VWS V14.01,2013-05-10 14:10:00,
2013-05-10 09:15:00,65.1,63.9,29.98,North,5,0.0,1.0,96,0.00,,,0.00,VWS V14.01,2013-05-10 14:15:00,
2013-05-10 09:20:00,65.1,63.9,29.97,North,5,0.0,0.0,96,0.00,,,0.00,VWS V14.01,2013-05-10 14:20:00,
2013-05-10 09:25:00,65.1,63.9,29.98,North,5,0.0,0.0,96,0.00,,,0.00,VWS V14.01,2013-05-10 14:25:00,
2013-05-10 09:30:00,65.1,63.9,29.98,North,5,0.0,1.0,96,0.00,,,0.00,VWS V14.01,2013-05-10 14:30:00,
2013-05-10 09:35:00,65.2,64.0,29.98,North,5,0.0,0.0,96,0.00,,,0.00,VWS V14.01,2013-05-10 14:35:00,
2013-05-10 09:40:00,65.3,64.4,29.97,NW,323,0.0,0.0,97,0.00,,,0.00,VWS V14.01,2013-05-10 14:40:00,
2013-05-10 09:45:00,65.4,64.2,29.97,NW,323,1.0,1.0,96,0.00,,,0.00,VWS V14.01,2013-05-10 14:45:00,
2013-05-10 09:50:00,65.5,64.3,29.97,NNW,333,0.0,0.0,96,0.00,,,0.00,VWS V14.01,2013-05-10 14:50:00,
2013-05-10 09:55:00,65.6,64.4,29.97,WSW,244,1.0,1.0,96,0.00,,,0.00,VWS V14.01,2013-05-10 14:55:00,
2013-05-10 10:00:00,65.8,64.9,29.96,WSW,244,2.0,2.0,97,0.00,,,0.00,VWS V14.01,2013-05-10 15:00:00,
2013-05-10 10:05:00,65.9,65.0,29.96,WSW,244,0.0,0.0,97,0.00,,,0.00,VWS V14.01,2013-05-10 15:05:00,
2013-05-10 10:10:00,66.1,64.9,29.96,WSW,244,0.0,0.0,96,0.00,,,0.00,VWS V14.01,2013-05-10 15:10:00,
2013-05-10 10:15:00,66.2,65.0,29.96,West,271,0.0,1.0,96,0.00,,,0.00,VWS V14.01,2013-05-10 15:15:00,
2013-05-10 10:20:00,66.4,65.5,29.96,NW,304,1.0,2.0,97,0.00,,,0.00,VWS V14.01,2013-05-10 15:20:00,
2013-05-10 10:25:00,66.3,65.1,29.95,NNW,338,0.0,2.0,96,0.00,,,0.00,VWS V14.01,2013-05-10 15:25:00,
2013-05-10 10:30:00,66.5,65.3,29.96,NNW,328,3.0,4.0,96,0.00,,,0.00,VWS V14.01,2013-05-10 15:30:00,
2013-05-10 10:35:00,66.9,65.7,29.96,West,276,2.0,5.0,96,0.00,,,0.00,VWS V14.01,2013-05-10 15:35:00,
2013-05-10 10:40:00,67.3,66.1,29.96,West,268,5.0,6.0,96,0.00,,,0.00,VWS V14.01,2013-05-10 15:40:00,
2013-05-10 10:45:00,67.7,66.5,29.96,West,280,2.0,3.0,96,0.00,,,0.00,VWS V14.01,2013-05-10 15:45:00,
2013-05-10 10:50:00,68.6,67.4,29.96,West,266,4.0,4.0,96,0.00,,,0.00,VWS V14.01,2013-05-10 15:50:00,
2013-05-10 10:55:00,68.9,67.1,29.97,NW,306,3.0,6.0,94,0.00,,,0.00,VWS V14.01,2013-05-10 15:55:00,
2013-05-10 11:00:00,69.3,66.9,29.96,West,274,0.0,1.0,92,0.00,,,0.00,VWS V14.01,2013-05-10 16:00:00,
2013-05-10 11:05:00,69.7,66.6,29.96,West,279,3.0,7.0,90,0.00,,,0.00,VWS V14.01,2013-05-10 16:05:00,
2013-05-10 11:10:00,70.5,66.4,29.96,NNW,336,8.0,8.0,87,0.00,,,0.00,VWS V14.01,2013-05-10 16:10:00,
2013-05-10 11:15:00,70.9,66.5,29.96,WNW,294,3.0,6.0,86,0.00,,,0.00,VWS V14.01,2013-05-10 16:15:00,
2013-05-10 11:20:00,71.5,66.1,29.96,WNW,288,4.0,5.0,83,0.00,,,0.00,VWS V14.01,2013-05-10 16:20:00,
2013-05-10 11:25:00,72.1,66.3,29.96,NNW,345,2.0,5.0,82,0.00,,,0.00,VWS V14.01,2013-05-10 16:25:00,
2013-05-10 11:30:00,72.2,65.7,29.96,NNE,12,3.0,4.0,80,0.00,,,0.00,VWS V14.01,2013-05-10 16:30:00,
2013-05-10 11:35:00,72.8,65.9,29.96,NNW,338,6.0,7.0,79,0.00,,,0.00,VWS V14.01,2013-05-10 16:35:00,
2013-05-10 11:40:00,73.0,65.7,29.96,North,355,6.0,7.0,78,0.00,,,0.00,VWS V14.01,2013-05-10 16:40:00,
2013-05-10 11:45:00,73.1,65.1,29.96,North,5,4.0,5.0,76,0.00,,,0.00,VWS V14.01,2013-05-10 16:45:00,
2013-05-10 11:50:00,73.8,65.8,29.96,North,9,2.0,5.0,76,0.00,,,0.00,VWS V14.01,2013-05-10 16:50:00,
2013-05-10 11:55:00,74.3,65.9,29.96,NW,311,1.0,2.0,75,0.00,,,0.00,VWS V14.01,2013-05-10 16:55:00,
2013-05-10 12:00:00,74.6,65.8,29.96,ENE,57,1.0,4.0,74,0.00,,,0.00,VWS V14.01,2013-05-10 17:00:00,
2013-05-10 12:05:00,75.1,66.2,29.96,North,360,4.0,8.0,74,0.00,,,0.00,VWS V14.01,2013-05-10 17:05:00,
2013-05-10 12:10:00,75.1,65.9,29.95,NNE,22,8.0,8.0,73,0.00,,,0.00,VWS V14.01,2013-05-10 17:10:00,
2013-05-10 12:15:00,75.5,66.2,29.95,North,355,5.0,6.0,73,0.00,,,0.00,VWS V14.01,2013-05-10 17:15:00,
2013-05-10 12:20:00,75.6,66.3,29.95,NE,36,3.0,4.0,73,0.00,,,0.00,VWS V14.01,2013-05-10 17:20:00,
2013-05-10 12:25:00,76.0,65.9,29.95,North,355,3.0,3.0,71,0.00,,,0.00,VWS V14.01,2013-05-10 17:25:00,
2013-05-10 12:30:00,76.0,65.9,29.95,NNE,22,3.0,9.0,71,0.00,,,0.00,VWS V14.01,2013-05-10 17:30:00,
2013-05-10 12:35:00,75.9,65.0,29.95,North,360,6.0,10.0,69,0.00,,,0.00,VWS V14.01,2013-05-10 17:35:00,
2013-05-10 12:40:00,75.8,65.3,29.95,ESE,105,3.0,6.0,70,0.00,,,0.00,VWS V14.01,2013-05-10 17:40:00,
2013-05-10 12:45:00,76.2,65.7,29.95,NE,37,6.0,7.0,70,0.00,,,0.00,VWS V14.01,2013-05-10 17:45:00,
2013-05-10 12:50:00,76.3,65.0,29.95,NNE,18,7.0,10.0,68,0.00,,,0.00,VWS V14.01,2013-05-10 17:50:00,
2013-05-10 12:55:00,76.2,65.3,29.95,NNE,20,4.0,9.0,69,0.00,,,0.00,VWS V14.01,2013-05-10 17:55:00,
2013-05-10 13:00:00,76.0,64.7,29.95,North,355,9.0,9.0,68,0.00,,,0.00,VWS V14.01,2013-05-10 18:00:00,
2013-05-10 13:05:00,75.7,64.4,29.95,NE,34,8.0,10.0,68,0.00,,,0.00,VWS V14.01,2013-05-10 18:05:00,
2013-05-10 13:10:00,75.9,65.4,29.95,NNE,20,4.0,6.0,70,0.00,,,0.00,VWS V14.01,2013-05-10 18:10:00,
2013-05-10 13:15:00,76.6,64.8,29.94,North,351,7.0,8.0,67,0.00,,,0.00,VWS V14.01,2013-05-10 18:15:00,
2013-05-10 13:20:00,76.8,64.6,29.94,NNE,15,6.0,10.0,66,0.00,,,0.00,VWS V14.01,2013-05-10 18:20:00,
2013-05-10 13:25:00,77.4,64.3,29.94,North,355,3.0,8.0,64,0.00,,,0.00,VWS V14.01,2013-05-10 18:25:00,
2013-05-10 13:30:00,77.4,63.8,29.94,North,355,7.0,9.0,63,0.00,,,0.00,VWS V14.01,2013-05-10 18:30:00,
2013-05-10 13:35:00,77.3,64.6,29.94,NNE,13,4.0,7.0,65,0.00,,,0.00,VWS V14.01,2013-05-10 18:35:00,
2013-05-10 13:40:00,77.5,64.4,29.94,NNE,26,3.0,7.0,64,0.00,,,0.00,VWS V14.01,2013-05-10 18:40:00,
2013-05-10 13:45:00,78.4,65.7,29.93,North,360,3.0,8.0,65,0.00,,,0.00,VWS V14.01,2013-05-10 18:45:00,
2013-05-10 13:50:00,78.6,65.0,29.93,NNW,327,3.0,6.0,63,0.00,,,0.00,VWS V14.01,2013-05-10 18:50:00,
2013-05-10 13:55:00,78.9,64.8,29.93,NNW,337,5.0,6.0,62,0.00,,,0.00,VWS V14.01,2013-05-10 18:55:00,
2013-05-10 14:00:00,79.1,65.0,29.93,NNW,347,8.0,10.0,62,0.00,,,0.00,VWS V14.01,2013-05-10 19:00:00,
2013-05-10 14:05:00,79.4,65.7,29.92,West,275,3.0,6.0,63,0.00,,,0.00,VWS V14.01,2013-05-10 19:05:00,
2013-05-10 14:10:00,79.7,64.6,29.92,NW,315,4.0,7.0,60,0.00,,,0.00,VWS V14.01,2013-05-10 19:10:00,
2013-05-10 14:15:00,79.8,64.7,29.92,West,281,4.0,5.0,60,0.00,,,0.00,VWS V14.01,2013-05-10 19:15:00,
2013-05-10 14:20:00,80.1,64.0,29.92,NNW,342,7.0,8.0,58,0.00,,,0.00,VWS V14.01,2013-05-10 19:20:00,
2013-05-10 14:25:00,80.3,63.7,29.92,NNW,331,6.0,8.0,57,0.00,,,0.00,VWS V14.01,2013-05-10 19:25:00,
2013-05-10 14:30:00,80.6,65.0,29.92,NW,315,2.0,6.0,59,0.00,,,0.00,VWS V14.01,2013-05-10 19:30:00,
2013-05-10 14:35:00,80.8,64.7,29.91,NNE,26,5.0,5.0,58,0.00,,,0.00,VWS V14.01,2013-05-10 19:35:00,
2013-05-10 14:40:00,81.0,63.3,29.91,NNW,338,1.0,4.0,55,0.00,,,0.00,VWS V14.01,2013-05-10 19:40:00,
2013-05-10 14:45:00,81.5,64.8,29.91,North,355,4.0,9.0,57,0.00,,,0.00,VWS V14.01,2013-05-10 19:45:00,
2013-05-10 14:50:00,82.0,64.8,29.91,North,11,4.0,9.0,56,0.00,,,0.00,VWS V14.01,2013-05-10 19:50:00,
2013-05-10 14:55:00,81.6,62.3,29.90,NNW,340,2.0,6.0,52,0.00,,,0.00,VWS V14.01,2013-05-10 19:55:00,
2013-05-10 15:00:00,81.8,64.1,29.90,NNE,26,6.0,9.0,55,0.00,,,0.00,VWS V14.01,2013-05-10 20:00:00,
2013-05-10 15:05:00,82.2,62.3,29.90,East,94,3.0,6.0,51,0.00,,,0.00,VWS V14.01,2013-05-10 20:05:00,
2013-05-10 15:10:00,82.3,62.9,29.90,NNW,331,5.0,5.0,52,0.00,,,0.00,VWS V14.01,2013-05-10 20:10:00,
2013-05-10 15:15:00,82.3,63.5,29.90,NW,316,2.0,6.0,53,0.00,,,0.00,VWS V14.01,2013-05-10 20:15:00,
2013-05-10 15:20:00,82.8,63.9,29.90,WNW,301,3.0,3.0,53,0.00,,,0.00,VWS V14.01,2013-05-10 20:20:00,
2013-05-10 15:25:00,83.1,63.7,29.90,NNW,342,4.0,7.0,52,0.00,,,0.00,VWS V14.01,2013-05-10 20:25:00,
2013-05-10 15:30:00,83.0,62.5,29.90,North,355,8.0,8.0,50,0.00,,,0.00,VWS V14.01,2013-05-10 20:30:00,
2013-05-10 15:35:00,82.6,63.2,29.90,North,355,6.0,10.0,52,0.00,,,0.00,VWS V14.01,2013-05-10 20:35:00,
2013-05-10 15:40:00,82.6,63.2,29.90,NNE,26,5.0,13.0,52,0.00,,,0.00,VWS V14.01,2013-05-10 20:40:00,
2013-05-10 15:45:00,82.9,62.9,29.90,NNW,341,5.0,7.0,51,0.00,,,0.00,VWS V14.01,2013-05-10 20:45:00,
2013-05-10 15:50:00,83.0,63.0,29.90,North,355,6.0,7.0,51,0.00,,,0.00,VWS V14.01,2013-05-10 20:50:00,
2013-05-10 15:55:00,82.6,62.1,29.90,NW,309,7.0,7.0,50,0.00,,,0.00,VWS V14.01,2013-05-10 20:55:00,
2013-05-10 16:00:00,82.2,61.7,29.90,NNW,344,9.0,9.0,50,0.00,,,0.00,VWS V14.01,2013-05-10 21:00:00,
2013-05-10 16:05:00,81.9,62.6,29.90,North,5,5.0,5.0,52,0.00,,,0.00,VWS V14.01,2013-05-10 21:05:00,
2013-05-10 16:10:00,81.8,61.9,29.90,NW,323,3.0,6.0,51,0.00,,,0.00,VWS V14.01,2013-05-10 21:10:00,
2013-05-10 16:15:00,81.4,61.0,29.90,NNW,340,4.0,5.0,50,0.00,,,0.00,VWS V14.01,2013-05-10 21:15:00,
2013-05-10 16:20:00,81.1,61.8,29.90,NNW,340,6.0,8.0,52,0.00,,,0.00,VWS V14.01,2013-05-10 21:20:00,
2013-05-10 16:25:00,81.0,61.7,29.90,NW,310,7.0,8.0,52,0.00,,,0.00,VWS V14.01,2013-05-10 21:25:00,
2013-05-10 16:30:00,80.8,61.0,29.90,NNW,339,5.0,5.0,51,0.00,,,0.00,VWS V14.01,2013-05-10 21:30:00,
2013-05-10 16:35:00,80.6,60.8,29.90,NNE,16,3.0,5.0,51,0.00,,,0.00,VWS V14.01,2013-05-10 21:35:00,
2013-05-10 16:40:00,80.5,61.3,29.90,NNW,338,2.0,6.0,52,0.00,,,0.00,VWS V14.01,2013-05-10 21:40:00,
2013-05-10 16:45:00,80.5,60.7,29.90,NW,326,5.0,6.0,51,0.00,,,0.00,VWS V14.01,2013-05-10 21:45:00,
2013-05-10 16:50:00,80.5,61.3,29.90,NNW,342,6.0,7.0,52,0.00,,,0.00,VWS V14.01,2013-05-10 21:50:00,
2013-05-10 16:55:00,80.5,60.7,29.89,NNW,337,9.0,9.0,51,0.00,,,0.00,VWS V14.01,2013-05-10 21:55:00,
2013-05-10 16:58:00,80.5,60.7,29.89,NW,313,2.0,9.0,51,0.00,,,0.00,VWS V14.01,2013-05-10 21:58:00,
2013-05-10 17:03:00,80.4,60.6,29.90,NNW,329,3.0,10.0,51,0.00,,,0.00,VWS V14.01,2013-05-10 22:03:00,
2013-05-10 17:08:00,80.5,61.8,29.90,North,355,2.0,9.0,53,0.00,,,0.00,VWS V14.01,2013-05-10 22:08:00,
2013-05-10 17:13:00,80.7,60.9,29.90,North,355,6.0,7.0,51,0.00,,,0.00,VWS V14.01,2013-05-10 22:13:00,
2013-05-10 17:18:00,80.9,61.1,29.90,NNE,18,7.0,8.0,51,0.00,,,0.00,VWS V14.01,2013-05-10 22:18:00,
2013-05-10 17:23:00,81.1,60.7,29.90,NNW,348,9.0,10.0,50,0.00,,,0.00,VWS V14.01,2013-05-10 22:23:00,
2013-05-10 17:28:00,81.0,60.6,29.89,NNW,342,8.0,11.0,50,0.00,,,0.00,VWS V14.01,2013-05-10 22:28:00,
2013-05-10 17:33:00,80.8,60.4,29.89,North,5,8.0,8.0,50,0.00,,,0.00,VWS V14.01,2013-05-10 22:33:00,
2013-05-10 17:38:00,80.7,59.8,29.89,NW,306,1.0,8.0,49,0.00,,,0.00,VWS V14.01,2013-05-10 22:38:00,
2013-05-10 17:43:00,80.6,59.7,29.89,NNE,13,3.0,9.0,49,0.00,,,0.00,VWS V14.01,2013-05-10 22:43:00,
2013-05-10 17:48:00,80.4,59.5,29.89,NNE,24,6.0,10.0,49,0.00,,,0.00,VWS V14.01,2013-05-10 22:48:00,
2013-05-10 17:53:00,80.3,60.0,29.89,NW,313,2.0,7.0,50,0.00,,,0.00,VWS V14.01,2013-05-10 22:53:00,
2013-05-10 17:58:00,80.2,59.3,29.89,NNW,327,2.0,10.0,49,0.00,,,0.00,VWS V14.01,2013-05-10 22:58:00,
2013-05-10 18:03:00,80.2,59.3,29.89,North,355,6.0,8.0,49,0.00,,,0.00,VWS V14.01,2013-05-10 23:03:00,
2013-05-10 18:08:00,80.1,59.2,29.89,NE,34,3.0,8.0,49,0.00,,,0.00,VWS V14.01,2013-05-10 23:08:00,
2013-05-10 18:13:00,79.9,59.6,29.90,NW,307,6.0,8.0,50,0.00,,,0.00,VWS V14.01,2013-05-10 23:13:00,
2013-05-10 18:18:00,79.7,59.4,29.89,North,360,4.0,9.0,50,0.00,,,0.00,VWS V14.01,2013-05-10 23:18:00,
2013-05-10 18:23:00,79.6,59.3,29.89,NW,324,3.0,7.0,50,0.00,,,0.00,VWS V14.01,2013-05-10 23:23:00,
2013-05-10 18:28:00,79.4,58.6,29.89,NNW,333,6.0,11.0,49,0.00,,,0.00,VWS V14.01,2013-05-10 23:28:00,
2013-05-10 18:33:00,79.2,58.4,29.90,NW,312,4.0,9.0,49,0.00,,,0.00,VWS V14.01,2013-05-10 23:33:00,
2013-05-10 18:38:00,79.0,58.8,29.90,NW,309,3.0,7.0,50,0.00,,,0.00,VWS V14.01,2013-05-10 23:38:00,
2013-05-10 18:43:00,78.9,58.7,29.90,NNE,15,3.0,10.0,50,0.00,,,0.00,VWS V14.01,2013-05-10 23:43:00,
2013-05-10 18:48:00,78.7,58.5,29.90,NNW,333,4.0,10.0,50,0.00,,,0.00,VWS V14.01,2013-05-10 23:48:00,
2013-05-10 18:53:00,78.5,58.3,29.90,NW,320,8.0,11.0,50,0.00,,,0.00,VWS V14.01,2013-05-10 23:53:00,
2013-05-10 18:58:00,78.4,58.2,29.90,NNW,327,4.0,13.0,50,0.00,,,0.00,VWS V14.01,2013-05-10 23:58:00,
2013-05-10 19:03:00,78.3,58.2,29.90,NNW,341,1.0,6.0,50,0.00,,,0.00,VWS V14.01,2013-05-11 00:03:00,
2013-05-10 19:08:00,78.1,58.0,29.90,NNW,348,6.0,11.0,50,0.00,,,0.00,VWS V14.01,2013-05-11 00:08:00,
2013-05-10 19:13:00,78.0,57.9,29.91,NW,313,2.0,8.0,50,0.00,,,0.00,VWS V14.01,2013-05-11 00:13:00,
2013-05-10 19:18:00,77.8,57.7,29.90,NNW,342,2.0,9.0,50,0.00,,,0.00,VWS V14.01,2013-05-11 00:18:00,
2013-05-10 19:23:00,77.7,58.2,29.91,WNW,297,3.0,10.0,51,0.00,,,0.00,VWS V14.01,2013-05-11 00:23:00,
2013-05-10 19:28:00,77.6,57.5,29.91,NW,321,7.0,15.0,50,0.00,,,0.00,VWS V14.01,2013-05-11 00:28:00,
2013-05-10 19:33:00,77.3,57.8,29.92,WNW,284,2.0,10.0,51,0.00,,,0.00,VWS V14.01,2013-05-11 00:33:00,
2013-05-10 19:38:00,77.2,57.1,29.92,WNW,300,8.0,10.0,50,0.00,,,0.00,VWS V14.01,2013-05-11 00:38:00,
2013-05-10 19:43:00,77.0,57.0,29.92,NW,320,5.0,7.0,50,0.00,,,0.00,VWS V14.01,2013-05-11 00:43:00,
2013-05-10 19:48:00,76.8,56.8,29.92,NNW,331,7.0,10.0,50,0.00,,,0.00,VWS V14.01,2013-05-11 00:48:00,
2013-05-10 19:53:00,76.7,57.2,29.92,NW,322,4.0,10.0,51,0.00,,,0.00,VWS V14.01,2013-05-11 00:53:00,
2013-05-10 19:58:00,76.5,57.0,29.93,WNW,285,4.0,9.0,51,0.00,,,0.00,VWS V14.01,2013-05-11 00:58:00,
2013-05-10 20:03:00,76.4,57.0,29.93,WNW,302,8.0,9.0,51,0.00,,,0.00,VWS V14.01,2013-05-11 01:03:00,
2013-05-10 20:08:00,76.2,57.3,29.94,NNW,345,3.0,7.0,52,0.00,,,0.00,VWS V14.01,2013-05-11 01:08:00,
2013-05-10 20:13:00,76.1,56.7,29.94,NNW,341,8.0,10.0,51,0.00,,,0.00,VWS V14.01,2013-05-11 01:13:00,
2013-05-10 20:18:00,76.0,57.1,29.94,NW,315,3.0,8.0,52,0.00,,,0.00,VWS V14.01,2013-05-11 01:18:00,
2013-05-10 20:23:00,75.9,57.0,29.93,NNW,331,3.0,6.0,52,0.00,,,0.00,VWS V14.01,2013-05-11 01:23:00,
2013-05-10 20:28:00,75.7,56.8,29.94,WNW,303,3.0,9.0,52,0.00,,,0.00,VWS V14.01,2013-05-11 01:28:00,
2013-05-10 20:33:00,75.7,56.8,29.94,NNW,327,4.0,6.0,52,0.00,,,0.00,VWS V14.01,2013-05-11 01:33:00,
2013-05-10 20:38:00,75.5,56.7,29.94,NNW,334,9.0,9.0,52,0.00,,,0.00,VWS V14.01,2013-05-11 01:38:00,
2013-05-10 20:43:00,75.3,57.0,29.94,North,350,3.0,6.0,53,0.00,,,0.00,VWS V14.01,2013-05-11 01:43:00,
2013-05-10 20:48:00,75.2,56.9,29.94,NW,325,3.0,7.0,53,0.00,,,0.00,VWS V14.01,2013-05-11 01:48:00,
2013-05-10 20:53:00,75.0,56.7,29.94,North,351,3.0,9.0,53,0.00,,,0.00,VWS V14.01,2013-05-11 01:53:00,
2013-05-10 20:58:00,74.9,57.2,29.95,NNW,347,6.0,9.0,54,0.00,,,0.00,VWS V14.01,2013-05-11 01:58:00,
2013-05-10 21:03:00,74.8,57.1,29.95,North,355,4.0,7.0,54,0.00,,,0.00,VWS V14.01,2013-05-11 02:03:00,
2013-05-10 21:08:00,74.6,57.4,29.96,NNE,17,1.0,7.0,55,0.00,,,0.00,VWS V14.01,2013-05-11 02:08:00,
2013-05-10 21:13:00,74.5,57.3,29.96,NW,326,4.0,7.0,55,0.00,,,0.00,VWS V14.01,2013-05-11 02:13:00,
2013-05-10 21:18:00,74.5,57.3,29.96,NW,306,4.0,8.0,55,0.00,,,0.00,VWS V14.01,2013-05-11 02:18:00,
2013-05-10 21:23:00,74.3,57.6,29.97,NNW,337,4.0,8.0,56,0.00,,,0.00,VWS V14.01,2013-05-11 02:23:00,
2013-05-10 21:28:00,74.2,57.5,29.97,North,5,4.0,7.0,56,0.00,,,0.00,VWS V14.01,2013-05-11 02:28:00,
2013-05-10 21:33:00,74.0,57.3,29.97,NNW,336,4.0,8.0,56,0.00,,,0.00,VWS V14.01,2013-05-11 02:33:00,
2013-05-10 21:37:00,73.9,57.7,29.97,North,355,4.0,7.0,57,0.00,,,0.00,VWS V14.01,2013-05-11 02:37:00,
2013-05-10 21:43:00,73.8,58.1,29.97,NW,319,4.0,7.0,58,0.00,,,0.00,VWS V14.01,2013-05-11 02:43:00,
2013-05-10 21:47:00,73.7,58.0,29.97,North,355,3.0,5.0,58,0.00,,,0.00,VWS V14.01,2013-05-11 02:47:00,
2013-05-10 21:52:00,73.5,57.8,29.98,NNW,337,2.0,6.0,58,0.00,,,0.00,VWS V14.01,2013-05-11 02:52:00,
2013-05-10 21:57:00,73.4,58.2,29.98,NW,325,2.0,7.0,59,0.00,,,0.00,VWS V14.01,2013-05-11 02:57:00,
2013-05-10 22:02:00,73.3,58.1,29.98,NNW,338,3.0,6.0,59,0.00,,,0.00,VWS V14.01,2013-05-11 03:02:00,
2013-05-10 22:07:00,73.2,58.0,29.98,North,351,4.0,5.0,59,0.00,,,0.00,VWS V14.01,2013-05-11 03:07:00,
2013-05-10 22:12:00,73.0,57.8,29.99,NW,323,5.0,7.0,59,0.00,,,0.00,VWS V14.01,2013-05-11 03:12:00,
2013-05-10 22:17:00,72.8,57.7,29.99,NW,310,5.0,6.0,59,0.00,,,0.00,VWS V14.01,2013-05-11 03:17:00,
2013-05-10 22:22:00,72.6,57.9,30.00,North,355,6.0,8.0,60,0.00,,,0.00,VWS V14.01,2013-05-11 03:22:00,
2013-05-10 22:27:00,72.4,57.8,30.00,WNW,300,4.0,8.0,60,0.00,,,0.00,VWS V14.01,2013-05-11 03:27:00,
2013-05-10 22:32:00,72.3,57.7,30.00,NNW,335,5.0,7.0,60,0.00,,,0.00,VWS V14.01,2013-05-11 03:32:00,
2013-05-10 22:37:00,72.1,57.5,30.00,NNW,342,5.0,11.0,60,0.00,,,0.00,VWS V14.01,2013-05-11 03:37:00,
2013-05-10 22:43:00,72.0,56.9,30.00,NNW,347,4.0,10.0,59,0.00,,,0.00,VWS V14.01,2013-05-11 03:43:00,
2013-05-10 22:47:00,71.9,56.8,30.01,North,350,5.0,8.0,59,0.00,,,0.00,VWS V14.01,2013-05-11 03:47:00,
2013-05-10 22:52:00,71.7,56.6,30.00,NNW,328,5.0,7.0,59,0.00,,,0.00,VWS V14.01,2013-05-11 03:52:00,
2013-05-10 22:57:00,71.5,56.4,30.01,NNW,341,3.0,8.0,59,0.00,,,0.00,VWS V14.01,2013-05-11 03:57:00,
2013-05-10 23:01:00,71.5,56.9,30.01,NNW,344,4.0,6.0,60,0.00,,,0.00,VWS V14.01,2013-05-11 04:01:00,
2013-05-10 23:06:00,71.3,56.7,30.01,North,350,3.0,7.0,60,0.00,,,0.00,VWS V14.01,2013-05-11 04:06:00,
2013-05-10 23:11:00,71.2,56.6,30.01,NW,313,2.0,6.0,60,0.00,,,0.00,VWS V14.01,2013-05-11 04:11:00,
2013-05-10 23:16:00,71.1,56.5,30.01,NNW,338,3.0,7.0,60,0.00,,,0.00,VWS V14.01,2013-05-11 04:16:00,
2013-05-10 23:21:00,71.0,56.4,30.01,NNE,26,2.0,6.0,60,0.00,,,0.00,VWS V14.01,2013-05-11 04:21:00,
2013-05-10 23:26:00,70.9,56.3,30.01,NW,309,3.0,5.0,60,0.00,,,0.00,VWS V14.01,2013-05-11 04:26:00,
2013-05-10 23:31:00,70.9,56.3,30.02,North,350,3.0,5.0,60,0.00,,,0.00,VWS V14.01,2013-05-11 04:31:00,
2013-05-10 23:36:00,70.8,56.7,30.02,NNW,339,3.0,4.0,61,0.00,,,0.00,VWS V14.01,2013-05-11 04:36:00,
2013-05-10 23:41:00,70.7,56.6,30.02,NNW,333,1.0,5.0,61,0.00,,,0.00,VWS V14.01,2013-05-11 04:41:00,
2013-05-10 23:46:00,70.6,56.5,30.02,North,355,5.0,6.0,61,0.00,,,0.00,VWS V14.01,2013-05-11 04:46:00,
2013-05-10 23:51:00,70.5,56.9,30.02,NNW,342,2.0,8.0,62,0.00,,,0.00,VWS V14.01,2013-05-11 04:51:00,
2013-05-10 23:56:00,70.3,56.7,30.02,NNW,337,1.0,7.0,62,0.00,,,0.00,VWS V14.01,2013-05-11 04:56:00,